Tropical Cyclones
[Index]
Main Index Home Page Stock Weather Photos Extreme Storms Discussion Storm News and Storm Chasing Reports Tropical Cyclones / Hurricanes / Typhoons Weather Data and Links Wild Fires / Bushfires Weather Observation Techniques Weather Picture Catalogue Tornado Pictures and Reports Stock Video Footage and DVDs for sale
Season 1962-1963 Tropical Cyclone 196349 Track Map
Season 1962-1963 Summaries: [BoM-AU] [JTWC-AU] [JTWC-SIO] [JTWC-SPAC] [JTWC-SH]
<<- Previous TC | JTWC 1962-1963 Season | Next TC ->>

click for intensity scale information  Lat/long Grid: Show Hide

 Date Labels: Show Hide

Joint Typhoon Warning Centre Cyclone Data

Name: 196349
Number: 496 / 6349

03 May 1963 00:00 UTC to 08 May 1963 18:00 UTC

    date/time    lat    long     hPa   cat  kts
1963-05-03 00   13.0   162.7                  15          
1963-05-03 06   13.0   162.0                  20          
1963-05-03 12   13.0   161.3                  20          
1963-05-03 18   13.0   160.6                  20          
1963-05-04 00   13.0   159.9                  20          
1963-05-04 06   13.0   159.2                  20          
1963-05-04 12   13.0   158.5                  20          
1963-05-04 18   13.1   157.7                  15          
1963-05-05 00   13.1   156.9                  15          
1963-05-05 06   13.2   156.1                  15          
1963-05-05 12   13.2   155.3                  15          
1963-05-05 18   13.3   154.4                  10          
1963-05-06 00   13.7   153.6                  10          
1963-05-06 06   15.1   152.9                  10          
1963-05-06 12   17.2   152.9                  10          
1963-05-06 18   19.8   153.5                  20          
1963-05-07 00   22.1   154.3                  25          
1963-05-07 06   23.9   155.3                  20          
1963-05-07 12   25.2   156.1                  20          
1963-05-07 18   25.7   156.7                  35          
1963-05-08 00   26.4   156.8            1     45          
1963-05-08 06   27.7   156.6            1     40          
1963-05-08 12   28.9   156.4                  35          
1963-05-08 18   29.7   156.3                  35          
Winds are 1-min average.

Tropical cyclone tracks developed by Michael Bath using data from the Joint Typhoon Warning Centre Best Tracks and Google Maps.


[Australian Severe Weather index] [Copyright Notice] [Email Contacts] [Search This Site] [Privacy Policy]
Document: tropical_cyclone_196349.htm Updated: 18 September 2016